createdAt,value
2023-08-06T00:04:10.495Z,19.00
2023-08-06T00:09:14.480Z,19.13
2023-08-06T00:14:18.561Z,19.00
2023-08-06T00:19:22.895Z,18.85
2023-08-06T00:24:25.802Z,19.04
2023-08-06T00:29:28.711Z,19.17
2023-08-06T00:34:32.995Z,19.22
2023-08-06T00:39:35.892Z,19.15
2023-08-06T00:44:38.902Z,19.16
2023-08-06T00:49:43.398Z,19.18
2023-08-06T00:54:46.409Z,19.12
2023-08-06T00:59:49.806Z,19.11
2023-08-06T01:04:54.183Z,18.89
2023-08-06T01:10:02.509Z,18.88
2023-08-06T01:15:10.715Z,18.81
2023-08-06T01:20:15.067Z,18.52
2023-08-06T01:25:19.593Z,18.61
2023-08-06T01:30:28.064Z,18.56
2023-08-06T01:35:31.451Z,18.35
2023-08-06T01:40:37.138Z,18.45
2023-08-06T01:45:40.252Z,18.47
2023-08-06T01:50:43.452Z,18.50
2023-08-06T01:55:51.373Z,18.53
2023-08-06T02:00:54.450Z,18.54
2023-08-06T02:05:57.444Z,18.48
2023-08-06T02:11:03.018Z,18.55
2023-08-06T02:16:09.770Z,18.44
2023-08-06T02:21:12.901Z,18.39
2023-08-06T02:26:17.412Z,18.29
2023-08-06T02:31:20.312Z,18.26
2023-08-06T02:36:23.398Z,17.89
2023-08-06T02:41:27.679Z,17.85
2023-08-06T02:46:30.680Z,17.99
2023-08-06T02:51:34.023Z,18.24
2023-08-06T02:56:38.463Z,17.97
2023-08-06T03:01:49.580Z,17.85
2023-08-06T03:06:59.383Z,17.97
2023-08-06T03:12:11.669Z,17.91
2023-08-06T03:17:16.323Z,17.56
2023-08-06T03:22:19.637Z,17.53
2023-08-06T03:27:24.236Z,17.73
2023-08-06T03:32:28.720Z,17.52
2023-08-06T03:37:32.408Z,17.75
2023-08-06T03:42:36.792Z,17.84
2023-08-06T03:47:40.465Z,17.95
2023-08-06T03:52:43.935Z,17.78
2023-08-06T03:57:49.340Z,17.72
2023-08-06T04:02:52.634Z,17.65
2023-08-06T04:07:55.714Z,17.62
2023-08-06T04:13:00.004Z,17.33
2023-08-06T04:18:03.014Z,17.17
2023-08-06T04:23:08.511Z,17.32
2023-08-06T04:28:13.719Z,17.35
2023-08-06T04:33:16.765Z,17.02
2023-08-06T04:38:21.578Z,16.73
2023-08-06T04:43:26.318Z,17.02
2023-08-06T04:48:29.530Z,17.08
2023-08-06T04:53:32.471Z,17.03
2023-08-06T04:58:39.385Z,17.05
2023-08-06T05:03:43.513Z,16.58
2023-08-06T05:08:46.638Z,16.60
2023-08-06T05:13:51.061Z,16.90
2023-08-06T05:18:54.022Z,16.78
2023-08-06T05:23:57.036Z,16.91
2023-08-06T05:29:01.539Z,16.58
2023-08-06T05:34:04.514Z,16.79
2023-08-06T05:39:07.476Z,16.94
2023-08-06T05:44:12.032Z,16.84
2023-08-06T05:49:15.161Z,16.71
2023-08-06T05:54:18.206Z,16.81
2023-08-06T05:59:22.508Z,16.77
2023-08-06T06:04:25.469Z,16.72
2023-08-06T06:09:28.376Z,16.45
2023-08-06T06:14:32.697Z,16.89
2023-08-06T06:19:35.713Z,16.91
2023-08-06T06:24:38.721Z,16.90
2023-08-06T06:29:42.946Z,16.76
2023-08-06T06:34:46.144Z,16.96
2023-08-06T06:39:49.110Z,17.17
2023-08-06T06:44:53.766Z,17.23
2023-08-06T06:49:56.738Z,17.15
2023-08-06T06:54:59.661Z,17.09
2023-08-06T07:00:06.759Z,17.07
2023-08-06T07:05:10.765Z,17.04
2023-08-06T07:10:13.829Z,17.01
2023-08-06T07:15:19.195Z,17.03
2023-08-06T07:20:22.266Z,17.09
2023-08-06T07:25:25.341Z,17.23
2023-08-06T07:30:29.677Z,17.23
2023-08-06T07:35:32.733Z,17.47
2023-08-06T07:40:37.787Z,17.54
2023-08-06T07:45:42.315Z,17.47
2023-08-06T07:50:51.335Z,17.46
2023-08-06T07:55:55.093Z,17.50
2023-08-06T08:01:00.015Z,17.61
2023-08-06T08:06:03.961Z,17.70
2023-08-06T08:11:07.501Z,17.87
2023-08-06T08:16:11.968Z,17.78
2023-08-06T08:21:14.937Z,17.86
2023-08-06T08:26:17.916Z,18.16
2023-08-06T08:31:22.270Z,18.12
2023-08-06T08:36:25.284Z,18.23
2023-08-06T08:41:30.365Z,18.36
2023-08-06T08:46:35.556Z,18.45
2023-08-06T08:51:39.011Z,18.07
2023-08-06T08:56:42.028Z,17.92
2023-08-06T09:01:47.586Z,17.86
2023-08-06T09:06:52.942Z,17.94
2023-08-06T09:11:57.870Z,17.95
2023-08-06T09:17:02.494Z,17.99
2023-08-06T09:22:11.991Z,18.35
2023-08-06T09:27:15.804Z,18.43
2023-08-06T09:32:21.579Z,18.40
2023-08-06T09:37:24.792Z,18.54
2023-08-06T09:42:27.874Z,18.52
2023-08-06T09:47:32.283Z,18.52
2023-08-06T09:52:35.452Z,18.82
2023-08-06T09:57:38.953Z,18.64
2023-08-06T10:02:43.825Z,18.55
2023-08-06T10:07:47.479Z,18.82
2023-08-06T10:12:51.981Z,18.85
2023-08-06T10:17:58.783Z,18.81
2023-08-06T10:23:03.645Z,18.79
2023-08-06T10:28:10.617Z,18.97
2023-08-06T10:33:15.185Z,18.78
2023-08-06T10:38:19.317Z,18.87
2023-08-06T10:43:29.431Z,18.71
2023-08-06T10:48:37.280Z,19.01
2023-08-06T10:53:40.481Z,18.97
2023-08-06T10:58:43.730Z,18.79
2023-08-06T11:03:50.309Z,18.73
2023-08-06T11:08:54.633Z,18.93
2023-08-06T11:13:57.666Z,19.14
2023-08-06T11:19:02.124Z,19.26
2023-08-06T11:24:05.188Z,19.30
2023-08-06T11:29:08.149Z,19.32
2023-08-06T11:34:13.114Z,19.50
2023-08-06T11:39:16.145Z,19.92
2023-08-06T11:44:23.419Z,19.94
2023-08-06T11:49:41.994Z,19.93
2023-08-06T11:54:45.090Z,20.01
2023-08-06T11:59:48.081Z,20.63
2023-08-06T12:05:02.968Z,20.22
2023-08-06T12:10:06.945Z,20.35
2023-08-06T12:15:11.056Z,19.75
2023-08-06T12:20:15.876Z,20.24
2023-08-06T12:25:19.050Z,20.64
2023-08-06T12:30:22.086Z,21.13
2023-08-06T12:35:26.869Z,20.87
2023-08-06T12:40:37.106Z,21.21
2023-08-06T12:45:41.731Z,20.98
2023-08-06T12:50:46.547Z,20.95
2023-08-06T12:55:49.552Z,21.17
2023-08-06T13:00:52.503Z,20.43
2023-08-06T13:05:56.876Z,21.09
2023-08-06T13:10:59.880Z,21.34
2023-08-06T13:16:03.106Z,21.60
2023-08-06T13:21:07.572Z,21.31
2023-08-06T13:26:10.580Z,21.66
2023-08-06T13:31:13.804Z,21.43
2023-08-06T13:36:18.461Z,21.10
2023-08-06T13:41:21.701Z,20.89
2023-08-06T13:46:25.509Z,20.51
2023-08-06T13:51:29.906Z,20.18
2023-08-06T13:56:33.429Z,20.18
2023-08-06T14:01:48.260Z,19.75
2023-08-06T14:06:55.579Z,19.61
2023-08-06T14:11:58.848Z,19.65
2023-08-06T14:17:03.165Z,20.25
2023-08-06T14:22:07.899Z,20.64
2023-08-06T14:27:10.851Z,20.23
2023-08-06T14:32:13.803Z,20.44
2023-08-06T14:37:18.164Z,20.70
2023-08-06T14:42:21.309Z,20.29
2023-08-06T14:47:24.269Z,20.52
2023-08-06T14:52:28.695Z,19.50
2023-08-06T14:57:32.306Z,19.59
2023-08-06T15:02:35.354Z,19.56
2023-08-06T15:07:39.634Z,19.57
2023-08-06T15:12:45.370Z,19.36
2023-08-06T15:17:48.407Z,19.52
2023-08-06T15:22:53.094Z,19.19
2023-08-06T15:27:56.126Z,19.17
2023-08-06T15:32:59.071Z,18.75
2023-08-06T15:38:03.536Z,18.60
2023-08-06T15:43:06.708Z,18.33
2023-08-06T15:48:10.231Z,17.90
2023-08-06T15:53:14.634Z,17.68
2023-08-06T15:58:17.729Z,17.98
2023-08-06T16:03:20.749Z,18.42
2023-08-06T16:08:25.286Z,17.92
2023-08-06T16:13:28.236Z,17.80
2023-08-06T16:18:31.211Z,17.68
2023-08-06T16:23:35.474Z,17.99
2023-08-06T16:28:38.425Z,18.02
2023-08-06T16:33:41.395Z,18.83
2023-08-06T16:38:45.779Z,18.32
2023-08-06T16:43:48.776Z,17.43
2023-08-06T16:48:51.771Z,17.40
2023-08-06T16:53:56.074Z,17.22
2023-08-06T16:58:59.075Z,17.22
2023-08-06T17:04:02.016Z,17.56
2023-08-06T17:09:07.005Z,17.30
2023-08-06T17:14:10.205Z,17.39
2023-08-06T17:19:13.593Z,16.77
2023-08-06T17:24:17.970Z,16.60
2023-08-06T17:29:20.948Z,17.04
2023-08-06T17:34:24.132Z,16.89
2023-08-06T17:39:28.525Z,17.04
2023-08-06T17:44:31.697Z,17.09
2023-08-06T17:49:34.878Z,16.68
2023-08-06T17:54:39.219Z,16.46
2023-08-06T17:59:42.155Z,16.31
2023-08-06T18:04:45.129Z,16.34
2023-08-06T18:09:49.582Z,16.37
2023-08-06T18:14:52.723Z,16.24
2023-08-06T18:19:55.957Z,16.31
2023-08-06T18:25:03.065Z,16.38
2023-08-06T18:30:07.290Z,16.21
2023-08-06T18:35:11.460Z,16.32
2023-08-06T18:45:20.248Z,15.89
2023-08-06T18:50:23.205Z,15.99
2023-08-06T18:55:27.579Z,16.11
2023-08-06T19:00:30.520Z,16.04
2023-08-06T19:05:33.541Z,15.87
2023-08-06T19:10:38.077Z,15.86
2023-08-06T19:15:41.364Z,15.95
2023-08-06T19:20:44.577Z,15.81
2023-08-06T19:25:50.064Z,16.18
2023-08-06T19:30:53.259Z,16.01
2023-08-06T19:35:56.302Z,15.98
2023-08-06T19:41:07.900Z,15.96
2023-08-06T19:46:10.937Z,15.81
2023-08-06T19:51:15.766Z,15.78
2023-08-06T19:56:20.320Z,15.70
2023-08-06T20:01:23.362Z,15.65
2023-08-06T20:06:30.599Z,15.79
2023-08-06T20:11:35.162Z,16.05
2023-08-06T20:16:38.173Z,16.00
2023-08-06T20:21:41.179Z,15.76
2023-08-06T20:26:45.481Z,16.00
2023-08-06T20:31:48.424Z,16.01
2023-08-06T20:36:51.382Z,15.72
2023-08-06T20:41:56.131Z,15.46
2023-08-06T20:46:59.651Z,15.55
2023-08-06T20:52:04.842Z,15.72
2023-08-06T20:57:10.727Z,15.68
2023-08-06T21:02:13.711Z,15.69
2023-08-06T21:07:16.844Z,15.37
2023-08-06T21:12:21.809Z,15.47
2023-08-06T21:17:24.819Z,15.35
2023-08-06T21:22:27.908Z,15.30
2023-08-06T21:27:32.156Z,15.23
2023-08-06T21:32:35.045Z,15.24
2023-08-06T21:37:38.091Z,15.01
2023-08-06T21:42:42.432Z,15.42
2023-08-06T21:47:47.802Z,15.50
2023-08-06T21:52:50.857Z,15.21
2023-08-06T21:57:55.128Z,15.15
2023-08-06T22:02:58.134Z,15.26
2023-08-06T22:08:01.130Z,15.22
2023-08-06T22:13:05.466Z,14.97
2023-08-06T22:18:08.574Z,15.13
2023-08-06T22:23:11.599Z,15.07
2023-08-06T22:28:15.876Z,14.94
2023-08-06T22:33:19.350Z,14.99
2023-08-06T22:38:22.682Z,15.02
2023-08-06T22:43:27.058Z,14.92
2023-08-06T22:48:29.999Z,15.04
2023-08-06T22:53:32.980Z,15.11
2023-08-06T22:58:38.700Z,15.41
2023-08-06T23:03:44.344Z,15.37
2023-08-06T23:08:49.924Z,15.30
2023-08-06T23:13:55.577Z,15.49
2023-08-06T23:18:58.419Z,15.30
2023-08-06T23:24:02.143Z,15.35
2023-08-06T23:29:06.595Z,15.45
2023-08-06T23:34:10.267Z,15.37
2023-08-06T23:39:13.439Z,15.40
2023-08-06T23:44:17.758Z,15.36
2023-08-06T23:49:20.764Z,15.25
2023-08-06T23:54:23.712Z,15.24
2023-08-06T23:59:27.991Z,15.23
